sensor_id;sensor_type;location;lat;lon;timestamp;P1;durP1;ratioP1;P2;durP2;ratioP2
16502;SDS011;53067;48.114;11.694;2022-08-21T00:01:34;2.55;;;2.35;;
16502;SDS011;53067;48.114;11.694;2022-08-21T00:04:05;2.20;;;2.10;;
16502;SDS011;53067;48.114;11.694;2022-08-21T00:06:53;2.35;;;2.15;;
16502;SDS011;53067;48.114;11.694;2022-08-21T00:09:20;2.08;;;1.98;;
16502;SDS011;53067;48.114;11.694;2022-08-21T00:11:48;2.63;;;2.43;;
16502;SDS011;53067;48.114;11.694;2022-08-21T00:14:15;4.35;;;2.10;;
16502;SDS011;53067;48.114;11.694;2022-08-21T00:16:43;2.17;;;2.08;;
16502;SDS011;53067;48.114;11.694;2022-08-21T00:19:11;2.17;;;2.08;;
16502;SDS011;53067;48.114;11.694;2022-08-21T00:21:38;2.12;;;1.87;;
16502;SDS011;53067;48.114;11.694;2022-08-21T00:24:06;2.57;;;2.30;;
16502;SDS011;53067;48.114;11.694;2022-08-21T00:26:34;2.70;;;2.60;;
16502;SDS011;53067;48.114;11.694;2022-08-21T00:29:02;2.60;;;2.40;;
16502;SDS011;53067;48.114;11.694;2022-08-21T00:31:30;2.10;;;2.00;;
16502;SDS011;53067;48.114;11.694;2022-08-21T00:33:57;2.50;;;2.20;;
16502;SDS011;53067;48.114;11.694;2022-08-21T00:36:25;2.40;;;2.25;;
16502;SDS011;53067;48.114;11.694;2022-08-21T00:38:55;2.70;;;2.50;;
16502;SDS011;53067;48.114;11.694;2022-08-21T00:41:22;3.98;;;2.37;;
16502;SDS011;53067;48.114;11.694;2022-08-21T00:43:50;2.50;;;2.30;;
16502;SDS011;53067;48.114;11.694;2022-08-21T00:46:18;2.17;;;2.08;;
16502;SDS011;53067;48.114;11.694;2022-08-21T00:49:07;2.37;;;2.17;;
16502;SDS011;53067;48.114;11.694;2022-08-21T00:51:37;2.08;;;1.98;;
16502;SDS011;53067;48.114;11.694;2022-08-21T00:54:06;2.77;;;2.10;;
16502;SDS011;53067;48.114;11.694;2022-08-21T00:56:36;2.50;;;2.10;;
16502;SDS011;53067;48.114;11.694;2022-08-21T00:59:03;2.30;;;2.20;;
16502;SDS011;53067;48.114;11.694;2022-08-21T01:01:32;2.05;;;1.82;;
16502;SDS011;53067;48.114;11.694;2022-08-21T01:04:00;2.60;;;2.10;;
16502;SDS011;53067;48.114;11.694;2022-08-21T01:06:28;1.97;;;1.87;;
16502;SDS011;53067;48.114;11.694;2022-08-21T01:08:55;1.95;;;1.80;;
16502;SDS011;53067;48.114;11.694;2022-08-21T01:11:23;2.08;;;1.95;;
16502;SDS011;53067;48.114;11.694;2022-08-21T01:13:51;2.12;;;1.62;;
16502;SDS011;53067;48.114;11.694;2022-08-21T01:16:20;1.87;;;1.77;;
16502;SDS011;53067;48.114;11.694;2022-08-21T01:18:49;2.50;;;1.92;;
16502;SDS011;53067;48.114;11.694;2022-08-21T01:21:19;1.80;;;1.53;;
16502;SDS011;53067;48.114;11.694;2022-08-21T01:23:49;1.70;;;1.60;;
16502;SDS011;53067;48.114;11.694;2022-08-21T01:26:22;1.63;;;1.53;;
16502;SDS011;53067;48.114;11.694;2022-08-21T01:28:51;2.60;;;2.20;;
16502;SDS011;53067;48.114;11.694;2022-08-21T01:31:26;2.22;;;1.90;;
16502;SDS011;53067;48.114;11.694;2022-08-21T01:33:57;2.17;;;1.90;;
16502;SDS011;53067;48.114;11.694;2022-08-21T01:36:25;2.00;;;1.90;;
16502;SDS011;53067;48.114;11.694;2022-08-21T01:38:53;2.07;;;1.83;;
16502;SDS011;53067;48.114;11.694;2022-08-21T01:41:21;2.30;;;2.10;;
16502;SDS011;53067;48.114;11.694;2022-08-21T01:43:49;1.95;;;1.85;;
16502;SDS011;53067;48.114;11.694;2022-08-21T01:46:16;2.03;;;1.83;;
16502;SDS011;53067;48.114;11.694;2022-08-21T01:48:44;2.02;;;1.80;;
16502;SDS011;53067;48.114;11.694;2022-08-21T01:51:11;1.87;;;1.77;;
16502;SDS011;53067;48.114;11.694;2022-08-21T01:53:39;1.80;;;1.70;;
16502;SDS011;53067;48.114;11.694;2022-08-21T01:56:07;2.00;;;1.90;;
16502;SDS011;53067;48.114;11.694;2022-08-21T01:58:36;1.70;;;1.60;;
16502;SDS011;53067;48.114;11.694;2022-08-21T02:01:04;1.50;;;1.50;;
16502;SDS011;53067;48.114;11.694;2022-08-21T02:03:32;1.70;;;1.60;;
16502;SDS011;53067;48.114;11.694;2022-08-21T02:06:00;1.93;;;1.70;;
16502;SDS011;53067;48.114;11.694;2022-08-21T02:08:28;3.00;;;1.90;;
16502;SDS011;53067;48.114;11.694;2022-08-21T02:10:56;2.70;;;1.62;;
16502;SDS011;53067;48.114;11.694;2022-08-21T02:13:23;1.17;;;1.17;;
16502;SDS011;53067;48.114;11.694;2022-08-21T02:15:51;1.95;;;1.57;;
16502;SDS011;53067;48.114;11.694;2022-08-21T02:18:19;1.50;;;1.40;;
16502;SDS011;53067;48.114;11.694;2022-08-21T02:20:48;1.60;;;1.50;;
16502;SDS011;53067;48.114;11.694;2022-08-21T02:23:16;1.57;;;1.47;;
16502;SDS011;53067;48.114;11.694;2022-08-21T02:25:44;1.77;;;1.67;;
16502;SDS011;53067;48.114;11.694;2022-08-21T02:28:12;1.80;;;1.70;;
16502;SDS011;53067;48.114;11.694;2022-08-21T02:30:43;1.60;;;1.50;;
16502;SDS011;53067;48.114;11.694;2022-08-21T02:33:12;2.00;;;1.90;;
16502;SDS011;53067;48.114;11.694;2022-08-21T02:35:40;1.80;;;1.70;;
16502;SDS011;53067;48.114;11.694;2022-08-21T02:38:12;1.57;;;1.53;;
16502;SDS011;53067;48.114;11.694;2022-08-21T02:40:41;2.37;;;1.47;;
16502;SDS011;53067;48.114;11.694;2022-08-21T02:43:10;1.80;;;1.70;;
16502;SDS011;53067;48.114;11.694;2022-08-21T02:45:38;2.13;;;1.80;;
16502;SDS011;53067;48.114;11.694;2022-08-21T02:48:08;1.80;;;1.70;;
16502;SDS011;53067;48.114;11.694;2022-08-21T02:50:41;2.17;;;1.60;;
16502;SDS011;53067;48.114;11.694;2022-08-21T02:53:12;1.70;;;1.60;;
16502;SDS011;53067;48.114;11.694;2022-08-21T02:55:42;1.40;;;1.40;;
16502;SDS011;53067;48.114;11.694;2022-08-21T02:58:13;2.00;;;1.57;;
16502;SDS011;53067;48.114;11.694;2022-08-21T03:00:42;1.57;;;1.47;;
16502;SDS011;53067;48.114;11.694;2022-08-21T03:03:10;1.70;;;1.60;;
16502;SDS011;53067;48.114;11.694;2022-08-21T03:05:40;1.80;;;1.70;;
16502;SDS011;53067;48.114;11.694;2022-08-21T03:08:10;1.63;;;1.53;;
16502;SDS011;53067;48.114;11.694;2022-08-21T03:10:41;1.80;;;1.70;;
16502;SDS011;53067;48.114;11.694;2022-08-21T03:13:10;1.87;;;1.67;;
16502;SDS011;53067;48.114;11.694;2022-08-21T03:15:39;1.70;;;1.60;;
16502;SDS011;53067;48.114;11.694;2022-08-21T03:18:08;1.53;;;1.40;;
16502;SDS011;53067;48.114;11.694;2022-08-21T03:20:36;1.60;;;1.50;;
16502;SDS011;53067;48.114;11.694;2022-08-21T03:23:06;1.80;;;1.70;;
16502;SDS011;53067;48.114;11.694;2022-08-21T03:25:34;1.67;;;1.57;;
16502;SDS011;53067;48.114;11.694;2022-08-21T03:28:02;1.93;;;1.40;;
16502;SDS011;53067;48.114;11.694;2022-08-21T03:30:32;2.00;;;1.90;;
16502;SDS011;53067;48.114;11.694;2022-08-21T03:33:00;2.00;;;1.50;;
16502;SDS011;53067;48.114;11.694;2022-08-21T03:35:28;2.03;;;1.63;;
16502;SDS011;53067;48.114;11.694;2022-08-21T03:37:56;1.60;;;1.43;;
16502;SDS011;53067;48.114;11.694;2022-08-21T03:40:24;1.83;;;1.73;;
16502;SDS011;53067;48.114;11.694;2022-08-21T03:42:52;2.03;;;1.83;;
16502;SDS011;53067;48.114;11.694;2022-08-21T03:45:20;2.17;;;1.57;;
16502;SDS011;53067;48.114;11.694;2022-08-21T03:47:55;1.57;;;1.57;;
16502;SDS011;53067;48.114;11.694;2022-08-21T03:50:25;1.70;;;1.60;;
16502;SDS011;53067;48.114;11.694;2022-08-21T03:52:55;1.80;;;1.70;;
16502;SDS011;53067;48.114;11.694;2022-08-21T03:55:24;1.90;;;1.80;;
16502;SDS011;53067;48.114;11.694;2022-08-21T03:57:53;1.70;;;1.60;;
16502;SDS011;53067;48.114;11.694;2022-08-21T04:00:21;1.80;;;1.70;;
16502;SDS011;53067;48.114;11.694;2022-08-21T04:02:49;1.70;;;1.60;;
16502;SDS011;53067;48.114;11.694;2022-08-21T04:05:17;1.73;;;1.63;;
16502;SDS011;53067;48.114;11.694;2022-08-21T04:07:47;1.67;;;1.63;;
16502;SDS011;53067;48.114;11.694;2022-08-21T04:10:14;1.67;;;1.57;;
16502;SDS011;53067;48.114;11.694;2022-08-21T04:12:42;2.03;;;1.93;;
16502;SDS011;53067;48.114;11.694;2022-08-21T04:15:09;3.40;;;1.90;;
16502;SDS011;53067;48.114;11.694;2022-08-21T04:17:38;1.60;;;1.50;;
16502;SDS011;53067;48.114;11.694;2022-08-21T04:20:06;1.60;;;1.50;;
16502;SDS011;53067;48.114;11.694;2022-08-21T04:22:34;1.77;;;1.60;;
16502;SDS011;53067;48.114;11.694;2022-08-21T04:25:01;2.00;;;1.90;;
16502;SDS011;53067;48.114;11.694;2022-08-21T04:27:29;2.27;;;1.60;;
16502;SDS011;53067;48.114;11.694;2022-08-21T04:29:57;2.47;;;1.63;;
16502;SDS011;53067;48.114;11.694;2022-08-21T04:32:25;2.73;;;1.63;;
16502;SDS011;53067;48.114;11.694;2022-08-21T04:35:00;1.47;;;1.40;;
16502;SDS011;53067;48.114;11.694;2022-08-21T04:37:29;3.10;;;1.57;;
16502;SDS011;53067;48.114;11.694;2022-08-21T04:39:57;2.40;;;1.50;;
16502;SDS011;53067;48.114;11.694;2022-08-21T04:42:26;1.50;;;1.40;;
16502;SDS011;53067;48.114;11.694;2022-08-21T04:44:54;2.03;;;1.80;;
16502;SDS011;53067;48.114;11.694;2022-08-21T04:47:23;1.83;;;1.50;;
16502;SDS011;53067;48.114;11.694;2022-08-21T04:49:51;2.60;;;1.50;;
16502;SDS011;53067;48.114;11.694;2022-08-21T04:52:19;2.40;;;1.70;;
16502;SDS011;53067;48.114;11.694;2022-08-21T04:54:49;2.10;;;1.30;;
16502;SDS011;53067;48.114;11.694;2022-08-21T04:57:18;1.60;;;1.50;;
16502;SDS011;53067;48.114;11.694;2022-08-21T04:59:47;1.50;;;1.50;;
16502;SDS011;53067;48.114;11.694;2022-08-21T05:02:16;1.40;;;1.40;;
16502;SDS011;53067;48.114;11.694;2022-08-21T05:04:46;1.70;;;1.60;;
16502;SDS011;53067;48.114;11.694;2022-08-21T05:07:16;2.30;;;1.70;;
16502;SDS011;53067;48.114;11.694;2022-08-21T05:09:46;1.90;;;1.77;;
16502;SDS011;53067;48.114;11.694;2022-08-21T05:12:13;2.93;;;1.40;;
16502;SDS011;53067;48.114;11.694;2022-08-21T05:14:41;1.50;;;1.40;;
16502;SDS011;53067;48.114;11.694;2022-08-21T05:17:09;2.70;;;1.50;;
16502;SDS011;53067;48.114;11.694;2022-08-21T05:19:36;1.40;;;1.27;;
16502;SDS011;53067;48.114;11.694;2022-08-21T05:22:04;1.77;;;1.67;;
16502;SDS011;53067;48.114;11.694;2022-08-21T05:24:32;3.37;;;1.73;;
16502;SDS011;53067;48.114;11.694;2022-08-21T05:26:59;1.60;;;1.60;;
16502;SDS011;53067;48.114;11.694;2022-08-21T05:29:27;1.90;;;1.60;;
16502;SDS011;53067;48.114;11.694;2022-08-21T05:31:55;1.50;;;1.50;;
16502;SDS011;53067;48.114;11.694;2022-08-21T05:34:23;2.80;;;1.60;;
16502;SDS011;53067;48.114;11.694;2022-08-21T05:36:51;1.83;;;1.73;;
16502;SDS011;53067;48.114;11.694;2022-08-21T05:39:18;2.17;;;1.53;;
16502;SDS011;53067;48.114;11.694;2022-08-21T05:41:46;4.20;;;1.47;;
16502;SDS011;53067;48.114;11.694;2022-08-21T05:44:13;1.40;;;1.40;;
16502;SDS011;53067;48.114;11.694;2022-08-21T05:46:41;1.50;;;1.20;;
16502;SDS011;53067;48.114;11.694;2022-08-21T05:49:08;1.70;;;1.60;;
16502;SDS011;53067;48.114;11.694;2022-08-21T05:51:38;1.60;;;1.50;;
16502;SDS011;53067;48.114;11.694;2022-08-21T05:54:07;1.90;;;1.80;;
16502;SDS011;53067;48.114;11.694;2022-08-21T05:56:34;1.83;;;1.73;;
16502;SDS011;53067;48.114;11.694;2022-08-21T05:59:02;1.70;;;1.60;;
16502;SDS011;53067;48.114;11.694;2022-08-21T06:01:30;2.10;;;1.70;;
16502;SDS011;53067;48.114;11.694;2022-08-21T06:03:58;1.53;;;1.37;;
16502;SDS011;53067;48.114;11.694;2022-08-21T06:06:25;1.50;;;1.40;;
16502;SDS011;53067;48.114;11.694;2022-08-21T06:08:53;2.37;;;1.90;;
16502;SDS011;53067;48.114;11.694;2022-08-21T06:11:20;1.60;;;1.50;;
16502;SDS011;53067;48.114;11.694;2022-08-21T06:13:48;1.70;;;1.60;;
16502;SDS011;53067;48.114;11.694;2022-08-21T06:16:16;2.13;;;1.37;;
16502;SDS011;53067;48.114;11.694;2022-08-21T06:18:44;1.83;;;1.70;;
16502;SDS011;53067;48.114;11.694;2022-08-21T06:21:12;1.90;;;1.80;;
16502;SDS011;53067;48.114;11.694;2022-08-21T06:23:41;1.60;;;1.50;;
16502;SDS011;53067;48.114;11.694;2022-08-21T06:26:09;1.77;;;1.67;;
16502;SDS011;53067;48.114;11.694;2022-08-21T06:28:38;1.60;;;1.50;;
16502;SDS011;53067;48.114;11.694;2022-08-21T06:31:16;1.97;;;1.87;;
16502;SDS011;53067;48.114;11.694;2022-08-21T06:33:40;2.43;;;1.50;;
16502;SDS011;53067;48.114;11.694;2022-08-21T06:36:09;1.72;;;1.62;;
16502;SDS011;53067;48.114;11.694;2022-08-21T06:38:36;2.83;;;1.47;;
16502;SDS011;53067;48.114;11.694;2022-08-21T06:41:05;1.53;;;1.50;;
16502;SDS011;53067;48.114;11.694;2022-08-21T06:43:33;1.85;;;1.75;;
16502;SDS011;53067;48.114;11.694;2022-08-21T06:46:01;1.90;;;1.80;;
16502;SDS011;53067;48.114;11.694;2022-08-21T06:48:29;2.13;;;1.70;;
16502;SDS011;53067;48.114;11.694;2022-08-21T06:50:59;1.55;;;1.45;;
16502;SDS011;53067;48.114;11.694;2022-08-21T06:53:27;3.20;;;1.85;;
16502;SDS011;53067;48.114;11.694;2022-08-21T06:55:55;3.52;;;2.02;;
16502;SDS011;53067;48.114;11.694;2022-08-21T06:58:22;3.90;;;1.87;;
16502;SDS011;53067;48.114;11.694;2022-08-21T07:00:50;1.65;;;1.55;;
16502;SDS011;53067;48.114;11.694;2022-08-21T07:03:19;2.27;;;2.10;;
16502;SDS011;53067;48.114;11.694;2022-08-21T07:05:49;2.05;;;1.95;;
16502;SDS011;53067;48.114;11.694;2022-08-21T07:08:17;2.03;;;1.70;;
16502;SDS011;53067;48.114;11.694;2022-08-21T07:10:45;1.92;;;1.82;;
16502;SDS011;53067;48.114;11.694;2022-08-21T07:13:14;2.00;;;1.90;;
16502;SDS011;53067;48.114;11.694;2022-08-21T07:15:42;4.70;;;2.17;;
16502;SDS011;53067;48.114;11.694;2022-08-21T07:18:10;2.22;;;2.00;;
16502;SDS011;53067;48.114;11.694;2022-08-21T07:20:39;2.95;;;2.42;;
16502;SDS011;53067;48.114;11.694;2022-08-21T07:23:09;5.67;;;2.65;;
16502;SDS011;53067;48.114;11.694;2022-08-21T07:25:38;2.60;;;2.40;;
16502;SDS011;53067;48.114;11.694;2022-08-21T07:28:06;2.77;;;2.58;;
16502;SDS011;53067;48.114;11.694;2022-08-21T07:30:34;2.67;;;2.58;;
16502;SDS011;53067;48.114;11.694;2022-08-21T07:33:01;3.87;;;2.80;;
16502;SDS011;53067;48.114;11.694;2022-08-21T07:35:29;2.92;;;2.72;;
16502;SDS011;53067;48.114;11.694;2022-08-21T07:37:58;3.90;;;2.73;;
16502;SDS011;53067;48.114;11.694;2022-08-21T07:40:26;2.80;;;2.70;;
16502;SDS011;53067;48.114;11.694;2022-08-21T07:42:53;3.02;;;2.65;;
16502;SDS011;53067;48.114;11.694;2022-08-21T07:45:21;2.83;;;2.60;;
16502;SDS011;53067;48.114;11.694;2022-08-21T07:47:51;3.60;;;3.30;;
16502;SDS011;53067;48.114;11.694;2022-08-21T07:50:19;3.27;;;2.70;;
16502;SDS011;53067;48.114;11.694;2022-08-21T07:52:46;3.33;;;3.00;;
16502;SDS011;53067;48.114;11.694;2022-08-21T07:55:15;3.00;;;2.80;;
16502;SDS011;53067;48.114;11.694;2022-08-21T07:57:44;3.17;;;2.93;;
16502;SDS011;53067;48.114;11.694;2022-08-21T08:00:14;4.22;;;3.10;;
16502;SDS011;53067;48.114;11.694;2022-08-21T08:02:45;3.33;;;3.02;;
16502;SDS011;53067;48.114;11.694;2022-08-21T08:05:17;3.33;;;2.95;;
16502;SDS011;53067;48.114;11.694;2022-08-21T08:07:45;3.10;;;2.80;;
16502;SDS011;53067;48.114;11.694;2022-08-21T08:10:13;3.50;;;2.98;;
16502;SDS011;53067;48.114;11.694;2022-08-21T08:12:42;2.87;;;2.67;;
16502;SDS011;53067;48.114;11.694;2022-08-21T08:15:11;3.47;;;3.17;;
16502;SDS011;53067;48.114;11.694;2022-08-21T08:17:41;4.37;;;3.37;;
16502;SDS011;53067;48.114;11.694;2022-08-21T08:20:09;3.45;;;3.20;;
16502;SDS011;53067;48.114;11.694;2022-08-21T08:22:38;3.45;;;2.90;;
16502;SDS011;53067;48.114;11.694;2022-08-21T08:25:07;2.83;;;2.62;;
16502;SDS011;53067;48.114;11.694;2022-08-21T08:27:36;3.08;;;2.87;;
16502;SDS011;53067;48.114;11.694;2022-08-21T08:30:05;3.05;;;2.85;;
16502;SDS011;53067;48.114;11.694;2022-08-21T08:32:34;3.95;;;3.10;;
16502;SDS011;53067;48.114;11.694;2022-08-21T08:35:02;3.00;;;2.80;;
16502;SDS011;53067;48.114;11.694;2022-08-21T08:37:32;3.08;;;2.87;;
16502;SDS011;53067;48.114;11.694;2022-08-21T08:40:02;2.83;;;2.72;;
16502;SDS011;53067;48.114;11.694;2022-08-21T08:42:32;3.10;;;2.75;;
16502;SDS011;53067;48.114;11.694;2022-08-21T08:45:12;2.98;;;2.72;;
16502;SDS011;53067;48.114;11.694;2022-08-21T08:47:47;3.47;;;3.22;;
16502;SDS011;53067;48.114;11.694;2022-08-21T08:50:26;3.75;;;3.35;;
16502;SDS011;53067;48.114;11.694;2022-08-21T08:53:05;3.52;;;3.22;;
16502;SDS011;53067;48.114;11.694;2022-08-21T08:55:42;3.60;;;3.40;;
16502;SDS011;53067;48.114;11.694;2022-08-21T08:58:12;3.62;;;3.33;;
16502;SDS011;53067;48.114;11.694;2022-08-21T09:00:43;4.58;;;3.35;;
16502;SDS011;53067;48.114;11.694;2022-08-21T09:03:13;4.58;;;3.45;;
16502;SDS011;53067;48.114;11.694;2022-08-21T09:05:44;4.08;;;3.65;;
16502;SDS011;53067;48.114;11.694;2022-08-21T09:11:13;3.30;;;3.10;;
16502;SDS011;53067;48.114;11.694;2022-08-21T09:14:07;3.20;;;3.00;;
16502;SDS011;53067;48.114;11.694;2022-08-21T09:16:54;3.80;;;3.02;;
16502;SDS011;53067;48.114;11.694;2022-08-21T09:25:17;3.30;;;2.98;;
16502;SDS011;53067;48.114;11.694;2022-08-21T09:27:43;3.37;;;3.08;;
16502;SDS011;53067;48.114;11.694;2022-08-21T09:30:11;2.92;;;2.70;;
16502;SDS011;53067;48.114;11.694;2022-08-21T09:32:39;4.08;;;3.77;;
16502;SDS011;53067;48.114;11.694;2022-08-21T09:35:08;3.12;;;2.92;;
16502;SDS011;53067;48.114;11.694;2022-08-21T09:37:51;3.42;;;3.22;;
16502;SDS011;53067;48.114;11.694;2022-08-21T09:40:35;3.15;;;2.70;;
16502;SDS011;53067;48.114;11.694;2022-08-21T09:45:40;2.67;;;2.47;;
16502;SDS011;53067;48.114;11.694;2022-08-21T09:48:23;3.15;;;2.85;;
16502;SDS011;53067;48.114;11.694;2022-08-21T09:50:48;3.27;;;3.00;;
16502;SDS011;53067;48.114;11.694;2022-08-21T09:53:21;4.33;;;3.05;;
16502;SDS011;53067;48.114;11.694;2022-08-21T09:55:54;2.70;;;2.60;;
16502;SDS011;53067;48.114;11.694;2022-08-21T09:58:45;3.85;;;2.45;;
16502;SDS011;53067;48.114;11.694;2022-08-21T10:01:20;3.00;;;2.80;;
16502;SDS011;53067;48.114;11.694;2022-08-21T10:04:09;2.90;;;2.70;;
16502;SDS011;53067;48.114;11.694;2022-08-21T10:06:37;3.05;;;2.70;;
16502;SDS011;53067;48.114;11.694;2022-08-21T10:09:09;2.85;;;2.65;;
16502;SDS011;53067;48.114;11.694;2022-08-21T10:11:39;2.80;;;2.60;;
16502;SDS011;53067;48.114;11.694;2022-08-21T10:14:24;2.25;;;2.00;;
16502;SDS011;53067;48.114;11.694;2022-08-21T10:17:00;2.62;;;2.52;;
16502;SDS011;53067;48.114;11.694;2022-08-21T10:19:43;2.67;;;2.58;;
16502;SDS011;53067;48.114;11.694;2022-08-21T10:27:59;2.30;;;2.20;;
16502;SDS011;53067;48.114;11.694;2022-08-21T10:30:46;2.65;;;2.40;;
16502;SDS011;53067;48.114;11.694;2022-08-21T10:44:13;2.35;;;2.15;;
16502;SDS011;53067;48.114;11.694;2022-08-21T10:46:47;2.08;;;1.98;;
16502;SDS011;53067;48.114;11.694;2022-08-21T10:49:44;2.75;;;2.40;;
16502;SDS011;53067;48.114;11.694;2022-08-21T10:55:08;2.25;;;2.15;;
16502;SDS011;53067;48.114;11.694;2022-08-21T10:57:50;2.80;;;2.60;;
16502;SDS011;53067;48.114;11.694;2022-08-21T11:00:35;2.58;;;2.37;;
16502;SDS011;53067;48.114;11.694;2022-08-21T11:03:04;2.42;;;2.17;;
16502;SDS011;53067;48.114;11.694;2022-08-21T11:05:47;2.17;;;2.08;;
16502;SDS011;53067;48.114;11.694;2022-08-21T11:08:26;2.42;;;2.20;;
16502;SDS011;53067;48.114;11.694;2022-08-21T11:11:04;2.10;;;2.00;;
16502;SDS011;53067;48.114;11.694;2022-08-21T11:21:55;2.80;;;2.60;;
16502;SDS011;53067;48.114;11.694;2022-08-21T11:24:44;2.20;;;2.10;;
16502;SDS011;53067;48.114;11.694;2022-08-21T11:30:18;2.30;;;2.15;;
16502;SDS011;53067;48.114;11.694;2022-08-21T11:35:36;2.55;;;2.45;;
16502;SDS011;53067;48.114;11.694;2022-08-21T11:51:49;3.20;;;2.55;;
16502;SDS011;53067;48.114;11.694;2022-08-21T11:57:25;2.33;;;2.22;;
16502;SDS011;53067;48.114;11.694;2022-08-21T12:00:19;1.85;;;1.75;;
16502;SDS011;53067;48.114;11.694;2022-08-21T12:02:50;1.98;;;1.87;;
16502;SDS011;53067;48.114;11.694;2022-08-21T12:05:29;2.15;;;1.98;;
16502;SDS011;53067;48.114;11.694;2022-08-21T12:08:10;2.30;;;2.20;;
16502;SDS011;53067;48.114;11.694;2022-08-21T12:10:36;2.10;;;2.00;;
16502;SDS011;53067;48.114;11.694;2022-08-21T12:13:06;2.35;;;2.25;;
16502;SDS011;53067;48.114;11.694;2022-08-21T12:15:37;3.35;;;2.27;;
16502;SDS011;53067;48.114;11.694;2022-08-21T12:18:06;2.27;;;2.02;;
16502;SDS011;53067;48.114;11.694;2022-08-21T12:20:40;2.30;;;2.20;;
16502;SDS011;53067;48.114;11.694;2022-08-21T12:25:44;2.52;;;2.42;;
16502;SDS011;53067;48.114;11.694;2022-08-21T12:28:21;2.83;;;2.05;;
16502;SDS011;53067;48.114;11.694;2022-08-21T12:30:47;1.92;;;1.82;;
16502;SDS011;53067;48.114;11.694;2022-08-21T12:35:48;2.47;;;2.35;;
16502;SDS011;53067;48.114;11.694;2022-08-21T12:38:20;3.20;;;2.67;;
16502;SDS011;53067;48.114;11.694;2022-08-21T12:41:05;3.40;;;2.33;;
16502;SDS011;53067;48.114;11.694;2022-08-21T12:43:37;3.83;;;2.83;;
16502;SDS011;53067;48.114;11.694;2022-08-21T12:46:17;2.40;;;2.30;;
16502;SDS011;53067;48.114;11.694;2022-08-21T12:48:57;2.35;;;2.25;;
16502;SDS011;53067;48.114;11.694;2022-08-21T12:51:29;2.47;;;2.27;;
16502;SDS011;53067;48.114;11.694;2022-08-21T12:53:58;2.77;;;2.60;;
16502;SDS011;53067;48.114;11.694;2022-08-21T12:56:32;2.70;;;2.50;;
16502;SDS011;53067;48.114;11.694;2022-08-21T12:59:00;2.67;;;2.47;;
16502;SDS011;53067;48.114;11.694;2022-08-21T13:01:31;3.20;;;2.55;;
16502;SDS011;53067;48.114;11.694;2022-08-21T13:04:02;2.40;;;2.30;;
16502;SDS011;53067;48.114;11.694;2022-08-21T13:06:36;2.40;;;2.27;;
16502;SDS011;53067;48.114;11.694;2022-08-21T13:09:08;2.42;;;2.22;;
16502;SDS011;53067;48.114;11.694;2022-08-21T13:11:41;2.58;;;2.35;;
16502;SDS011;53067;48.114;11.694;2022-08-21T13:14:17;2.35;;;2.22;;
16502;SDS011;53067;48.114;11.694;2022-08-21T13:16:41;2.45;;;2.35;;
16502;SDS011;53067;48.114;11.694;2022-08-21T13:19:11;2.40;;;2.30;;
16502;SDS011;53067;48.114;11.694;2022-08-21T13:21:39;2.52;;;2.42;;
16502;SDS011;53067;48.114;11.694;2022-08-21T13:26:56;2.65;;;2.45;;
16502;SDS011;53067;48.114;11.694;2022-08-21T13:29:27;2.52;;;2.33;;
16502;SDS011;53067;48.114;11.694;2022-08-21T13:31:59;2.62;;;2.52;;
16502;SDS011;53067;48.114;11.694;2022-08-21T13:34:30;2.87;;;2.67;;
16502;SDS011;53067;48.114;11.694;2022-08-21T13:37:00;2.70;;;2.50;;
16502;SDS011;53067;48.114;11.694;2022-08-21T13:39:33;2.50;;;2.33;;
16502;SDS011;53067;48.114;11.694;2022-08-21T13:42:01;2.67;;;2.58;;
16502;SDS011;53067;48.114;11.694;2022-08-21T13:44:42;2.70;;;2.60;;
16502;SDS011;53067;48.114;11.694;2022-08-21T13:47:13;2.70;;;2.50;;
16502;SDS011;53067;48.114;11.694;2022-08-21T13:49:42;2.50;;;2.40;;
16502;SDS011;53067;48.114;11.694;2022-08-21T13:52:19;2.30;;;2.20;;
16502;SDS011;53067;48.114;11.694;2022-08-21T13:54:59;2.37;;;2.20;;
16502;SDS011;53067;48.114;11.694;2022-08-21T13:57:30;2.42;;;2.33;;
16502;SDS011;53067;48.114;11.694;2022-08-21T14:02:59;2.55;;;2.45;;
16502;SDS011;53067;48.114;11.694;2022-08-21T14:05:28;2.77;;;2.58;;
16502;SDS011;53067;48.114;11.694;2022-08-21T14:08:27;2.70;;;2.50;;
16502;SDS011;53067;48.114;11.694;2022-08-21T14:10:56;2.70;;;2.55;;
16502;SDS011;53067;48.114;11.694;2022-08-21T14:13:41;2.65;;;2.40;;
16502;SDS011;53067;48.114;11.694;2022-08-21T14:16:21;3.87;;;2.40;;
16502;SDS011;53067;48.114;11.694;2022-08-21T14:18:52;2.55;;;2.45;;
16502;SDS011;53067;48.114;11.694;2022-08-21T14:21:35;2.80;;;2.60;;
16502;SDS011;53067;48.114;11.694;2022-08-21T14:24:02;2.45;;;2.17;;
16502;SDS011;53067;48.114;11.694;2022-08-21T14:26:42;2.47;;;2.35;;
16502;SDS011;53067;48.114;11.694;2022-08-21T14:29:18;3.08;;;2.77;;
16502;SDS011;53067;48.114;11.694;2022-08-21T14:31:53;3.58;;;2.47;;
16502;SDS011;53067;48.114;11.694;2022-08-21T14:34:39;2.35;;;2.25;;
16502;SDS011;53067;48.114;11.694;2022-08-21T14:39:54;3.35;;;2.40;;
16502;SDS011;53067;48.114;11.694;2022-08-21T14:42:22;2.80;;;2.60;;
16502;SDS011;53067;48.114;11.694;2022-08-21T14:44:50;2.70;;;2.50;;
16502;SDS011;53067;48.114;11.694;2022-08-21T14:47:17;2.62;;;2.42;;
16502;SDS011;53067;48.114;11.694;2022-08-21T14:49:45;2.60;;;2.40;;
16502;SDS011;53067;48.114;11.694;2022-08-21T14:52:13;2.20;;;2.10;;
16502;SDS011;53067;48.114;11.694;2022-08-21T14:54:40;2.42;;;2.22;;
16502;SDS011;53067;48.114;11.694;2022-08-21T14:57:09;2.52;;;2.33;;
16502;SDS011;53067;48.114;11.694;2022-08-21T14:59:39;2.60;;;2.40;;
16502;SDS011;53067;48.114;11.694;2022-08-21T15:02:07;2.37;;;2.25;;
16502;SDS011;53067;48.114;11.694;2022-08-21T15:04:55;2.62;;;2.42;;
16502;SDS011;53067;48.114;11.694;2022-08-21T15:07:23;2.20;;;2.10;;
16502;SDS011;53067;48.114;11.694;2022-08-21T15:09:50;2.20;;;2.00;;
16502;SDS011;53067;48.114;11.694;2022-08-21T15:12:18;2.08;;;1.98;;
16502;SDS011;53067;48.114;11.694;2022-08-21T15:14:45;2.80;;;2.60;;
16502;SDS011;53067;48.114;11.694;2022-08-21T15:17:13;2.47;;;2.27;;
16502;SDS011;53067;48.114;11.694;2022-08-21T15:19:41;2.40;;;2.22;;
16502;SDS011;53067;48.114;11.694;2022-08-21T15:22:09;2.50;;;2.30;;
16502;SDS011;53067;48.114;11.694;2022-08-21T15:24:37;2.30;;;2.20;;
16502;SDS011;53067;48.114;11.694;2022-08-21T15:27:06;2.30;;;2.20;;
16502;SDS011;53067;48.114;11.694;2022-08-21T15:29:36;3.12;;;2.30;;
16502;SDS011;53067;48.114;11.694;2022-08-21T15:32:18;2.58;;;2.42;;
16502;SDS011;53067;48.114;11.694;2022-08-21T15:34:50;2.22;;;2.12;;
16502;SDS011;53067;48.114;11.694;2022-08-21T15:37:18;2.75;;;2.12;;
16502;SDS011;53067;48.114;11.694;2022-08-21T15:39:52;4.47;;;2.40;;
16502;SDS011;53067;48.114;11.694;2022-08-21T15:42:20;2.35;;;2.25;;
16502;SDS011;53067;48.114;11.694;2022-08-21T15:44:48;3.10;;;2.83;;
16502;SDS011;53067;48.114;11.694;2022-08-21T15:47:22;2.47;;;2.37;;
16502;SDS011;53067;48.114;11.694;2022-08-21T15:49:46;2.40;;;2.30;;
16502;SDS011;53067;48.114;11.694;2022-08-21T15:52:14;2.35;;;2.17;;
16502;SDS011;53067;48.114;11.694;2022-08-21T15:54:43;2.27;;;2.08;;
16502;SDS011;53067;48.114;11.694;2022-08-21T15:57:12;2.60;;;2.30;;
16502;SDS011;53067;48.114;11.694;2022-08-21T15:59:43;2.80;;;2.60;;
16502;SDS011;53067;48.114;11.694;2022-08-21T16:02:19;2.70;;;2.50;;
16502;SDS011;53067;48.114;11.694;2022-08-21T16:04:43;2.52;;;2.42;;
16502;SDS011;53067;48.114;11.694;2022-08-21T16:07:11;2.80;;;2.60;;
16502;SDS011;53067;48.114;11.694;2022-08-21T16:09:39;3.10;;;2.90;;